sensor_id;sensor_type;location;lat;lon;timestamp;temperature;humidity
2565;DHT22;1292;48.020;7.822;2023-04-15T05:45:53;8.90;99.90
2565;DHT22;1292;48.020;7.822;2023-04-15T05:48:20;8.90;99.90
2565;DHT22;1292;48.020;7.822;2023-04-15T05:50:47;9.00;99.90
2565;DHT22;1292;48.020;7.822;2023-04-15T05:53:13;8.60;99.90
2565;DHT22;1292;48.020;7.822;2023-04-15T05:55:40;8.70;99.90
2565;DHT22;1292;48.020;7.822;2023-04-15T05:58:07;8.90;99.90
2565;DHT22;1292;48.020;7.822;2023-04-15T06:00:34;9.00;99.90
2565;DHT22;1292;48.020;7.822;2023-04-15T06:03:02;9.10;99.90
2565;DHT22;1292;48.020;7.822;2023-04-15T06:05:29;9.10;99.90
2565;DHT22;1292;48.020;7.822;2023-04-15T06:07:56;9.10;99.90
2565;DHT22;1292;48.020;7.822;2023-04-15T06:10:23;9.30;99.90
2565;DHT22;1292;48.020;7.822;2023-04-15T06:12:51;9.30;99.90
2565;DHT22;1292;48.020;7.822;2023-04-15T06:15:18;9.40;99.90
2565;DHT22;1292;48.020;7.822;2023-04-15T06:17:45;9.60;99.90
2565;DHT22;1292;48.020;7.822;2023-04-15T06:20:13;9.60;99.90
2565;DHT22;1292;48.020;7.822;2023-04-15T06:22:40;9.70;99.90
2565;DHT22;1292;48.020;7.822;2023-04-15T06:25:08;9.70;99.90
2565;DHT22;1292;48.020;7.822;2023-04-15T06:27:35;9.80;99.90
2565;DHT22;1292;48.020;7.822;2023-04-15T06:30:02;9.90;99.90
2565;DHT22;1292;48.020;7.822;2023-04-15T06:32:29;9.90;99.90
2565;DHT22;1292;48.020;7.822;2023-04-15T06:34:56;9.90;99.90
2565;DHT22;1292;48.020;7.822;2023-04-15T06:37:24;10.00;99.90
2565;DHT22;1292;48.020;7.822;2023-04-15T06:39:51;9.90;99.90
2565;DHT22;1292;48.020;7.822;2023-04-15T06:42:18;10.00;99.90
2565;DHT22;1292;48.020;7.822;2023-04-15T06:44:44;10.00;99.90
2565;DHT22;1292;48.020;7.822;2023-04-15T06:47:11;10.10;99.90
2565;DHT22;1292;48.020;7.822;2023-04-15T06:49:39;10.10;99.90
2565;DHT22;1292;48.020;7.822;2023-04-15T06:52:07;10.20;99.90
2565;DHT22;1292;48.020;7.822;2023-04-15T06:54:35;10.20;99.90
2565;DHT22;1292;48.020;7.822;2023-04-15T06:57:02;10.30;99.90
2565;DHT22;1292;48.020;7.822;2023-04-15T06:59:29;10.30;99.90
2565;DHT22;1292;48.020;7.822;2023-04-15T07:01:56;10.40;99.90
2565;DHT22;1292;48.020;7.822;2023-04-15T07:04:23;10.50;99.90
2565;DHT22;1292;48.020;7.822;2023-04-15T07:06:50;10.40;99.90
2565;DHT22;1292;48.020;7.822;2023-04-15T07:09:16;10.50;99.90
2565;DHT22;1292;48.020;7.822;2023-04-15T07:11:45;10.60;99.90
2565;DHT22;1292;48.020;7.822;2023-04-15T07:14:12;10.70;99.90
2565;DHT22;1292;48.020;7.822;2023-04-15T07:16:39;10.70;99.90
2565;DHT22;1292;48.020;7.822;2023-04-15T07:19:06;10.70;99.90
2565;DHT22;1292;48.020;7.822;2023-04-15T07:21:33;10.60;99.90
2565;DHT22;1292;48.020;7.822;2023-04-15T07:23:59;10.60;99.90
2565;DHT22;1292;48.020;7.822;2023-04-15T07:26:26;10.60;99.90
2565;DHT22;1292;48.020;7.822;2023-04-15T07:28:55;10.70;99.90
2565;DHT22;1292;48.020;7.822;2023-04-15T07:31:21;10.80;99.90
2565;DHT22;1292;48.020;7.822;2023-04-15T07:33:48;10.70;99.90
2565;DHT22;1292;48.020;7.822;2023-04-15T07:36:15;10.70;99.90
2565;DHT22;1292;48.020;7.822;2023-04-15T07:38:42;10.70;99.90
2565;DHT22;1292;48.020;7.822;2023-04-15T07:41:09;10.70;99.90
2565;DHT22;1292;48.020;7.822;2023-04-15T07:43:36;10.80;99.90
2565;DHT22;1292;48.020;7.822;2023-04-15T07:46:04;10.80;99.90
2565;DHT22;1292;48.020;7.822;2023-04-15T07:48:31;10.80;99.90
2565;DHT22;1292;48.020;7.822;2023-04-15T07:50:58;10.90;99.90
2565;DHT22;1292;48.020;7.822;2023-04-15T07:53:25;10.90;99.90
2565;DHT22;1292;48.020;7.822;2023-04-15T07:55:52;11.00;99.90
2565;DHT22;1292;48.020;7.822;2023-04-15T07:58:19;11.00;99.90
2565;DHT22;1292;48.020;7.822;2023-04-15T08:00:45;11.00;99.90
2565;DHT22;1292;48.020;7.822;2023-04-15T08:03:14;11.10;99.90
2565;DHT22;1292;48.020;7.822;2023-04-15T08:05:40;11.10;99.90
2565;DHT22;1292;48.020;7.822;2023-04-15T08:08:07;11.10;99.90
2565;DHT22;1292;48.020;7.822;2023-04-15T08:10:34;11.10;99.90
2565;DHT22;1292;48.020;7.822;2023-04-15T08:13:01;11.10;99.90
2565;DHT22;1292;48.020;7.822;2023-04-15T08:15:28;11.20;99.90
2565;DHT22;1292;48.020;7.822;2023-04-15T08:17:57;11.20;99.90
2565;DHT22;1292;48.020;7.822;2023-04-15T08:20:26;11.20;99.90
2565;DHT22;1292;48.020;7.822;2023-04-15T08:22:53;11.30;99.90
2565;DHT22;1292;48.020;7.822;2023-04-15T08:25:20;11.30;99.90
2565;DHT22;1292;48.020;7.822;2023-04-15T08:27:47;11.30;99.90
2565;DHT22;1292;48.020;7.822;2023-04-15T08:30:14;11.20;99.90
2565;DHT22;1292;48.020;7.822;2023-04-15T08:32:42;11.20;99.90
2565;DHT22;1292;48.020;7.822;2023-04-15T08:35:11;11.20;99.90
2565;DHT22;1292;48.020;7.822;2023-04-15T08:37:40;11.30;99.90
2565;DHT22;1292;48.020;7.822;2023-04-15T08:40:08;11.30;99.90
2565;DHT22;1292;48.020;7.822;2023-04-15T08:42:37;11.50;99.90
2565;DHT22;1292;48.020;7.822;2023-04-15T08:45:08;11.40;99.90
2565;DHT22;1292;48.020;7.822;2023-04-15T08:47:37;11.50;99.90
2565;DHT22;1292;48.020;7.822;2023-04-15T08:50:05;11.70;99.90
2565;DHT22;1292;48.020;7.822;2023-04-15T08:52:34;11.70;99.90
2565;DHT22;1292;48.020;7.822;2023-04-15T08:55:03;11.80;99.90
2565;DHT22;1292;48.020;7.822;2023-04-15T08:57:32;11.80;99.90
2565;DHT22;1292;48.020;7.822;2023-04-15T09:00:02;11.80;99.90
2565;DHT22;1292;48.020;7.822;2023-04-15T09:02:29;11.70;99.90
2565;DHT22;1292;48.020;7.822;2023-04-15T09:04:57;11.80;99.90
2565;DHT22;1292;48.020;7.822;2023-04-15T09:07:23;11.90;99.90
2565;DHT22;1292;48.020;7.822;2023-04-15T09:09:50;12.00;99.90
2565;DHT22;1292;48.020;7.822;2023-04-15T09:12:18;12.00;99.90
2565;DHT22;1292;48.020;7.822;2023-04-15T09:14:45;12.10;99.90
2565;DHT22;1292;48.020;7.822;2023-04-15T09:17:12;12.20;99.90
2565;DHT22;1292;48.020;7.822;2023-04-15T09:19:44;12.30;99.90
2565;DHT22;1292;48.020;7.822;2023-04-15T09:22:11;12.30;99.90
2565;DHT22;1292;48.020;7.822;2023-04-15T09:24:39;12.20;99.90
2565;DHT22;1292;48.020;7.822;2023-04-15T09:27:07;12.40;99.90
2565;DHT22;1292;48.020;7.822;2023-04-15T09:29:36;12.60;99.90
2565;DHT22;1292;48.020;7.822;2023-04-15T09:32:10;12.70;99.90
2565;DHT22;1292;48.020;7.822;2023-04-15T09:34:37;12.80;99.90
2565;DHT22;1292;48.020;7.822;2023-04-15T09:37:03;12.90;99.90
2565;DHT22;1292;48.020;7.822;2023-04-15T09:39:45;12.90;99.90
2565;DHT22;1292;48.020;7.822;2023-04-15T09:42:14;13.20;99.90
2565;DHT22;1292;48.020;7.822;2023-04-15T09:44:43;13.30;99.90
2565;DHT22;1292;48.020;7.822;2023-04-15T09:47:26;13.30;99.90
2565;DHT22;1292;48.020;7.822;2023-04-15T09:49:54;13.40;99.90
2565;DHT22;1292;48.020;7.822;2023-04-15T09:52:22;13.20;99.90
2565;DHT22;1292;48.020;7.822;2023-04-15T09:54:52;13.30;99.90
2565;DHT22;1292;48.020;7.822;2023-04-15T09:57:20;13.50;99.90
2565;DHT22;1292;48.020;7.822;2023-04-15T09:59:49;13.40;99.90
2565;DHT22;1292;48.020;7.822;2023-04-15T10:02:17;13.30;99.90
2565;DHT22;1292;48.020;7.822;2023-04-15T10:04:47;13.30;99.90
2565;DHT22;1292;48.020;7.822;2023-04-15T10:07:16;13.30;99.90
2565;DHT22;1292;48.020;7.822;2023-04-15T10:09:45;13.30;99.90
2565;DHT22;1292;48.020;7.822;2023-04-15T10:12:12;13.30;99.90
2565;DHT22;1292;48.020;7.822;2023-04-15T10:14:41;13.40;99.90
2565;DHT22;1292;48.020;7.822;2023-04-15T10:17:10;13.50;99.90
2565;DHT22;1292;48.020;7.822;2023-04-15T10:19:38;13.50;99.90
2565;DHT22;1292;48.020;7.822;2023-04-15T10:22:05;13.50;99.90
2565;DHT22;1292;48.020;7.822;2023-04-15T10:24:33;13.40;99.90
2565;DHT22;1292;48.020;7.822;2023-04-15T10:27:00;13.50;99.90
2565;DHT22;1292;48.020;7.822;2023-04-15T10:29:29;13.50;99.90
2565;DHT22;1292;48.020;7.822;2023-04-15T10:31:56;13.60;99.90
2565;DHT22;1292;48.020;7.822;2023-04-15T10:34:26;13.50;99.90
2565;DHT22;1292;48.020;7.822;2023-04-15T10:36:54;13.40;99.90
2565;DHT22;1292;48.020;7.822;2023-04-15T10:39:41;13.40;99.90
2565;DHT22;1292;48.020;7.822;2023-04-15T10:42:10;13.50;99.90
2565;DHT22;1292;48.020;7.822;2023-04-15T10:44:37;13.70;99.90
2565;DHT22;1292;48.020;7.822;2023-04-15T10:47:10;13.70;99.90
2565;DHT22;1292;48.020;7.822;2023-04-15T10:49:46;13.70;99.90
2565;DHT22;1292;48.020;7.822;2023-04-15T10:52:15;13.80;99.90
2565;DHT22;1292;48.020;7.822;2023-04-15T10:54:43;13.80;99.90
2565;DHT22;1292;48.020;7.822;2023-04-15T10:57:14;13.90;99.90
2565;DHT22;1292;48.020;7.822;2023-04-15T11:00:10;14.10;99.90
2565;DHT22;1292;48.020;7.822;2023-04-15T11:02:41;14.30;99.90
2565;DHT22;1292;48.020;7.822;2023-04-15T11:05:10;14.20;99.90
2565;DHT22;1292;48.020;7.822;2023-04-15T11:07:46;14.30;99.90
2565;DHT22;1292;48.020;7.822;2023-04-15T11:13:24;14.50;99.90
2565;DHT22;1292;48.020;7.822;2023-04-15T11:15:57;14.60;99.90
2565;DHT22;1292;48.020;7.822;2023-04-15T11:18:27;14.60;99.90
2565;DHT22;1292;48.020;7.822;2023-04-15T11:20:58;14.80;99.90
2565;DHT22;1292;48.020;7.822;2023-04-15T11:23:36;14.80;99.90
2565;DHT22;1292;48.020;7.822;2023-04-15T11:26:05;14.70;99.90
2565;DHT22;1292;48.020;7.822;2023-04-15T11:28:34;14.60;99.90
2565;DHT22;1292;48.020;7.822;2023-04-15T11:31:06;14.60;99.90
2565;DHT22;1292;48.020;7.822;2023-04-15T11:33:35;14.30;99.90
2565;DHT22;1292;48.020;7.822;2023-04-15T11:36:03;14.30;99.90
2565;DHT22;1292;48.020;7.822;2023-04-15T11:38:30;14.30;99.90
2565;DHT22;1292;48.020;7.822;2023-04-15T11:40:57;14.20;99.90
2565;DHT22;1292;48.020;7.822;2023-04-15T11:43:24;14.10;99.90
2565;DHT22;1292;48.020;7.822;2023-04-15T11:45:53;14.20;99.90
2565;DHT22;1292;48.020;7.822;2023-04-15T11:48:22;14.30;99.90
2565;DHT22;1292;48.020;7.822;2023-04-15T11:50:53;14.30;99.90
2565;DHT22;1292;48.020;7.822;2023-04-15T11:53:23;14.40;99.90
2565;DHT22;1292;48.020;7.822;2023-04-15T11:55:51;14.40;99.90
2565;DHT22;1292;48.020;7.822;2023-04-15T11:58:19;14.30;99.90
2565;DHT22;1292;48.020;7.822;2023-04-15T12:00:48;14.30;99.90
2565;DHT22;1292;48.020;7.822;2023-04-15T12:03:21;14.20;99.90
2565;DHT22;1292;48.020;7.822;2023-04-15T12:06:05;14.20;99.90
2565;DHT22;1292;48.020;7.822;2023-04-15T12:09:07;14.30;99.90
2565;DHT22;1292;48.020;7.822;2023-04-15T12:11:55;14.30;99.90
2565;DHT22;1292;48.020;7.822;2023-04-15T12:14:25;14.30;99.90
2565;DHT22;1292;48.020;7.822;2023-04-15T12:16:53;14.40;99.90
2565;DHT22;1292;48.020;7.822;2023-04-15T12:19:24;14.30;99.90
2565;DHT22;1292;48.020;7.822;2023-04-15T12:21:56;14.20;99.90
2565;DHT22;1292;48.020;7.822;2023-04-15T12:24:24;14.20;99.90
2565;DHT22;1292;48.020;7.822;2023-04-15T12:26:52;14.30;99.90
2565;DHT22;1292;48.020;7.822;2023-04-15T12:29:24;14.50;99.90
2565;DHT22;1292;48.020;7.822;2023-04-15T12:31:53;14.50;99.90
2565;DHT22;1292;48.020;7.822;2023-04-15T12:34:26;14.50;99.90
2565;DHT22;1292;48.020;7.822;2023-04-15T12:36:54;14.70;99.90
2565;DHT22;1292;48.020;7.822;2023-04-15T12:39:21;15.00;99.90
2565;DHT22;1292;48.020;7.822;2023-04-15T12:41:50;15.20;99.90
2565;DHT22;1292;48.020;7.822;2023-04-15T12:44:17;15.20;99.90
2565;DHT22;1292;48.020;7.822;2023-04-15T12:46:44;15.50;99.90
2565;DHT22;1292;48.020;7.822;2023-04-15T12:49:11;15.70;99.90
2565;DHT22;1292;48.020;7.822;2023-04-15T12:51:40;15.60;99.90
2565;DHT22;1292;48.020;7.822;2023-04-15T12:54:07;15.70;99.90
2565;DHT22;1292;48.020;7.822;2023-04-15T12:56:34;15.70;99.90
2565;DHT22;1292;48.020;7.822;2023-04-15T12:59:02;15.40;99.90
2565;DHT22;1292;48.020;7.822;2023-04-15T13:01:29;15.40;99.90
2565;DHT22;1292;48.020;7.822;2023-04-15T13:03:56;15.40;99.90
2565;DHT22;1292;48.020;7.822;2023-04-15T13:06:22;15.50;99.90
2565;DHT22;1292;48.020;7.822;2023-04-15T13:08:50;15.50;99.90
2565;DHT22;1292;48.020;7.822;2023-04-15T13:11:19;15.50;99.90
2565;DHT22;1292;48.020;7.822;2023-04-15T13:13:46;15.50;99.90
2565;DHT22;1292;48.020;7.822;2023-04-15T13:16:14;15.40;99.90
2565;DHT22;1292;48.020;7.822;2023-04-15T13:18:41;15.40;99.90
2565;DHT22;1292;48.020;7.822;2023-04-15T13:21:11;15.60;99.90
2565;DHT22;1292;48.020;7.822;2023-04-15T13:23:38;15.60;99.90
2565;DHT22;1292;48.020;7.822;2023-04-15T13:26:05;15.70;99.90
2565;DHT22;1292;48.020;7.822;2023-04-15T13:28:32;15.80;99.90
2565;DHT22;1292;48.020;7.822;2023-04-15T13:30:58;15.90;99.90
2565;DHT22;1292;48.020;7.822;2023-04-15T13:33:27;16.10;99.90
2565;DHT22;1292;48.020;7.822;2023-04-15T13:35:54;16.20;99.90
2565;DHT22;1292;48.020;7.822;2023-04-15T13:38:21;16.00;99.90
2565;DHT22;1292;48.020;7.822;2023-04-15T13:40:48;15.70;99.90
2565;DHT22;1292;48.020;7.822;2023-04-15T13:43:15;15.80;99.90
2565;DHT22;1292;48.020;7.822;2023-04-15T13:45:43;15.80;99.90
2565;DHT22;1292;48.020;7.822;2023-04-15T13:48:10;16.00;99.90
2565;DHT22;1292;48.020;7.822;2023-04-15T13:50:38;16.20;99.90
2565;DHT22;1292;48.020;7.822;2023-04-15T13:53:05;16.40;99.90
2565;DHT22;1292;48.020;7.822;2023-04-15T13:55:32;16.50;99.90
2565;DHT22;1292;48.020;7.822;2023-04-15T13:58:00;16.80;99.90
2565;DHT22;1292;48.020;7.822;2023-04-15T14:00:27;17.10;99.90
2565;DHT22;1292;48.020;7.822;2023-04-15T14:02:53;17.10;99.90
2565;DHT22;1292;48.020;7.822;2023-04-15T14:05:20;17.00;99.90
2565;DHT22;1292;48.020;7.822;2023-04-15T14:07:49;17.00;99.90
2565;DHT22;1292;48.020;7.822;2023-04-15T14:10:16;16.80;99.90
2565;DHT22;1292;48.020;7.822;2023-04-15T14:12:43;16.80;99.90
2565;DHT22;1292;48.020;7.822;2023-04-15T14:15:10;16.80;99.90
2565;DHT22;1292;48.020;7.822;2023-04-15T14:17:37;16.90;99.90
2565;DHT22;1292;48.020;7.822;2023-04-15T14:20:06;16.90;99.40
2565;DHT22;1292;48.020;7.822;2023-04-15T14:22:33;16.90;99.90
2565;DHT22;1292;48.020;7.822;2023-04-15T14:25:02;16.70;99.90
2565;DHT22;1292;48.020;7.822;2023-04-15T14:27:29;16.20;99.90
2565;DHT22;1292;48.020;7.822;2023-04-15T14:29:56;16.10;99.90
2565;DHT22;1292;48.020;7.822;2023-04-15T14:32:24;16.10;99.90
2565;DHT22;1292;48.020;7.822;2023-04-15T14:34:51;15.90;99.90
2565;DHT22;1292;48.020;7.822;2023-04-15T14:37:17;15.90;99.90
2565;DHT22;1292;48.020;7.822;2023-04-15T14:39:45;15.90;99.90
2565;DHT22;1292;48.020;7.822;2023-04-15T14:42:13;16.00;99.90
2565;DHT22;1292;48.020;7.822;2023-04-15T14:44:39;16.00;99.90
2565;DHT22;1292;48.020;7.822;2023-04-15T14:47:08;16.00;99.90
2565;DHT22;1292;48.020;7.822;2023-04-15T14:49:35;16.00;99.90
2565;DHT22;1292;48.020;7.822;2023-04-15T14:52:02;16.10;99.90
2565;DHT22;1292;48.020;7.822;2023-04-15T14:54:29;16.10;99.90
2565;DHT22;1292;48.020;7.822;2023-04-15T14:56:56;16.20;99.90
2565;DHT22;1292;48.020;7.822;2023-04-15T14:59:24;16.20;99.90
2565;DHT22;1292;48.020;7.822;2023-04-15T15:01:51;16.10;99.90
2565;DHT22;1292;48.020;7.822;2023-04-15T15:04:18;16.00;99.90
2565;DHT22;1292;48.020;7.822;2023-04-15T15:06:45;16.00;99.90
2565;DHT22;1292;48.020;7.822;2023-04-15T15:09:12;16.10;99.90
2565;DHT22;1292;48.020;7.822;2023-04-15T15:11:39;16.20;99.90
2565;DHT22;1292;48.020;7.822;2023-04-15T15:14:06;16.20;99.90
2565;DHT22;1292;48.020;7.822;2023-04-15T15:16:34;16.30;99.90
2565;DHT22;1292;48.020;7.822;2023-04-15T15:19:03;16.40;99.90
2565;DHT22;1292;48.020;7.822;2023-04-15T15:21:30;16.40;99.90
2565;DHT22;1292;48.020;7.822;2023-04-15T15:24:00;16.50;99.90
2565;DHT22;1292;48.020;7.822;2023-04-15T15:26:28;16.50;99.90
2565;DHT22;1292;48.020;7.822;2023-04-15T15:28:55;16.50;99.90
2565;DHT22;1292;48.020;7.822;2023-04-15T15:31:22;16.10;99.90
2565;DHT22;1292;48.020;7.822;2023-04-15T15:33:50;15.90;99.90
2565;DHT22;1292;48.020;7.822;2023-04-15T15:36:17;16.00;99.90
2565;DHT22;1292;48.020;7.822;2023-04-15T15:38:45;16.00;99.90
2565;DHT22;1292;48.020;7.822;2023-04-15T15:41:11;16.00;99.90
2565;DHT22;1292;48.020;7.822;2023-04-15T15:43:40;16.10;99.90
2565;DHT22;1292;48.020;7.822;2023-04-15T15:46:07;16.00;99.90
2565;DHT22;1292;48.020;7.822;2023-04-15T15:48:34;16.00;99.90
2565;DHT22;1292;48.020;7.822;2023-04-15T15:51:03;16.20;99.90
2565;DHT22;1292;48.020;7.822;2023-04-15T15:53:29;16.30;99.90
2565;DHT22;1292;48.020;7.822;2023-04-15T15:55:57;16.40;99.90
2565;DHT22;1292;48.020;7.822;2023-04-15T15:58:23;16.30;99.90
2565;DHT22;1292;48.020;7.822;2023-04-15T16:00:50;16.20;99.90
2565;DHT22;1292;48.020;7.822;2023-04-15T16:03:17;16.20;99.90
2565;DHT22;1292;48.020;7.822;2023-04-15T16:05:45;16.20;99.90
2565;DHT22;1292;48.020;7.822;2023-04-15T16:08:13;16.20;99.90
2565;DHT22;1292;48.020;7.822;2023-04-15T16:10:41;16.30;99.90
2565;DHT22;1292;48.020;7.822;2023-04-15T16:13:08;16.20;99.90
2565;DHT22;1292;48.020;7.822;2023-04-15T16:15:35;16.00;99.90
2565;DHT22;1292;48.020;7.822;2023-04-15T16:18:02;15.90;99.90
2565;DHT22;1292;48.020;7.822;2023-04-15T16:20:29;15.80;99.90
2565;DHT22;1292;48.020;7.822;2023-04-15T16:22:56;15.70;99.90
2565;DHT22;1292;48.020;7.822;2023-04-15T16:25:24;15.70;99.90
2565;DHT22;1292;48.020;7.822;2023-04-15T16:27:52;15.60;99.90
2565;DHT22;1292;48.020;7.822;2023-04-15T16:30:20;15.70;99.90
2565;DHT22;1292;48.020;7.822;2023-04-15T16:32:46;15.40;99.90
2565;DHT22;1292;48.020;7.822;2023-04-15T16:35:14;15.30;99.90
2565;DHT22;1292;48.020;7.822;2023-04-15T16:37:41;15.30;99.90
2565;DHT22;1292;48.020;7.822;2023-04-15T16:40:09;15.40;99.90
2565;DHT22;1292;48.020;7.822;2023-04-15T16:42:37;15.40;99.90
2565;DHT22;1292;48.020;7.822;2023-04-15T16:45:08;15.30;99.90
2565;DHT22;1292;48.020;7.822;2023-04-15T16:47:36;15.30;99.90
2565;DHT22;1292;48.020;7.822;2023-04-15T16:50:05;15.30;99.90
2565;DHT22;1292;48.020;7.822;2023-04-15T16:52:32;15.30;99.90
2565;DHT22;1292;48.020;7.822;2023-04-15T16:54:59;15.30;99.90
2565;DHT22;1292;48.020;7.822;2023-04-15T16:57:26;15.20;99.90
2565;DHT22;1292;48.020;7.822;2023-04-15T16:59:54;15.00;99.90
2565;DHT22;1292;48.020;7.822;2023-04-15T17:02:21;15.00;99.90
2565;DHT22;1292;48.020;7.822;2023-04-15T17:04:48;15.00;99.90
2565;DHT22;1292;48.020;7.822;2023-04-15T17:07:15;15.00;99.90
2565;DHT22;1292;48.020;7.822;2023-04-15T17:09:42;15.00;99.90
2565;DHT22;1292;48.020;7.822;2023-04-15T17:12:09;15.10;99.90
2565;DHT22;1292;48.020;7.822;2023-04-15T17:14:37;15.00;99.90
2565;DHT22;1292;48.020;7.822;2023-04-15T17:17:05;15.00;99.90
2565;DHT22;1292;48.020;7.822;2023-04-15T17:19:32;14.90;99.90
2565;DHT22;1292;48.020;7.822;2023-04-15T17:21:59;14.80;99.90
2565;DHT22;1292;48.020;7.822;2023-04-15T17:24:26;14.80;99.90
2565;DHT22;1292;48.020;7.822;2023-04-15T17:26:53;14.80;99.90
2565;DHT22;1292;48.020;7.822;2023-04-15T17:29:21;14.60;99.90
2565;DHT22;1292;48.020;7.822;2023-04-15T17:31:49;14.50;99.90
2565;DHT22;1292;48.020;7.822;2023-04-15T17:34:18;14.40;99.90
2565;DHT22;1292;48.020;7.822;2023-04-15T17:36:44;14.30;99.90
2565;DHT22;1292;48.020;7.822;2023-04-15T17:39:12;14.30;99.90
2565;DHT22;1292;48.020;7.822;2023-04-15T17:41:40;14.20;99.90
2565;DHT22;1292;48.020;7.822;2023-04-15T17:44:06;14.20;99.90
2565;DHT22;1292;48.020;7.822;2023-04-15T17:46:34;14.10;99.90
2565;DHT22;1292;48.020;7.822;2023-04-15T17:49:01;14.00;99.90
2565;DHT22;1292;48.020;7.822;2023-04-15T17:51:30;14.00;99.90
2565;DHT22;1292;48.020;7.822;2023-04-15T17:53:57;14.00;99.90
2565;DHT22;1292;48.020;7.822;2023-04-15T17:56:24;14.00;99.90
2565;DHT22;1292;48.020;7.822;2023-04-15T17:58:51;14.00;99.90
2565;DHT22;1292;48.020;7.822;2023-04-15T18:01:18;13.90;99.90
2565;DHT22;1292;48.020;7.822;2023-04-15T18:03:46;13.80;99.90
2565;DHT22;1292;48.020;7.822;2023-04-15T18:06:13;13.80;99.90
2565;DHT22;1292;48.020;7.822;2023-04-15T18:08:42;13.70;99.90
2565;DHT22;1292;48.020;7.822;2023-04-15T18:11:09;13.60;99.90
2565;DHT22;1292;48.020;7.822;2023-04-15T18:13:37;13.60;99.90
2565;DHT22;1292;48.020;7.822;2023-04-15T18:16:04;13.60;99.90
2565;DHT22;1292;48.020;7.822;2023-04-15T18:18:31;13.50;99.90
2565;DHT22;1292;48.020;7.822;2023-04-15T18:20:58;13.50;99.90
2565;DHT22;1292;48.020;7.822;2023-04-15T18:23:26;13.40;99.90
2565;DHT22;1292;48.020;7.822;2023-04-15T18:25:54;13.40;99.90
2565;DHT22;1292;48.020;7.822;2023-04-15T18:28:22;13.30;99.90
2565;DHT22;1292;48.020;7.822;2023-04-15T18:30:49;13.20;99.90
2565;DHT22;1292;48.020;7.822;2023-04-15T18:33:16;13.30;99.90
2565;DHT22;1292;48.020;7.822;2023-04-15T18:35:43;13.20;99.90
2565;DHT22;1292;48.020;7.822;2023-04-15T18:38:10;13.20;99.90
2565;DHT22;1292;48.020;7.822;2023-04-15T18:40:37;13.10;99.90
2565;DHT22;1292;48.020;7.822;2023-04-15T18:43:05;13.20;99.90
2565;DHT22;1292;48.020;7.822;2023-04-15T18:45:33;13.20;99.90
2565;DHT22;1292;48.020;7.822;2023-04-15T18:48:01;13.10;99.90
2565;DHT22;1292;48.020;7.822;2023-04-15T18:50:28;13.00;99.90
2565;DHT22;1292;48.020;7.822;2023-04-15T18:52:54;13.00;99.90
2565;DHT22;1292;48.020;7.822;2023-04-15T18:55:22;13.00;99.90
2565;DHT22;1292;48.020;7.822;2023-04-15T18:57:49;12.90;99.90
2565;DHT22;1292;48.020;7.822;2023-04-15T19:00:17;12.90;99.90
2565;DHT22;1292;48.020;7.822;2023-04-15T19:02:44;12.80;99.90
2565;DHT22;1292;48.020;7.822;2023-04-15T19:05:11;12.80;99.90
2565;DHT22;1292;48.020;7.822;2023-04-15T19:07:38;12.80;99.90
2565;DHT22;1292;48.020;7.822;2023-04-15T19:10:06;12.80;99.90
2565;DHT22;1292;48.020;7.822;2023-04-15T19:12:33;12.80;99.90
2565;DHT22;1292;48.020;7.822;2023-04-15T19:15:01;12.90;99.90
2565;DHT22;1292;48.020;7.822;2023-04-15T19:17:29;12.80;99.90
2565;DHT22;1292;48.020;7.822;2023-04-15T19:19:56;12.80;99.90
2565;DHT22;1292;48.020;7.822;2023-04-15T19:22:23;12.80;99.90
2565;DHT22;1292;48.020;7.822;2023-04-15T19:24:50;12.70;99.90
2565;DHT22;1292;48.020;7.822;2023-04-15T19:27:17;12.80;99.90
2565;DHT22;1292;48.020;7.822;2023-04-15T19:29:44;12.60;99.90
2565;DHT22;1292;48.020;7.822;2023-04-15T19:32:11;12.60;99.90
2565;DHT22;1292;48.020;7.822;2023-04-15T19:34:40;12.60;99.90
2565;DHT22;1292;48.020;7.822;2023-04-15T19:37:06;12.70;99.90
2565;DHT22;1292;48.020;7.822;2023-04-15T19:39:33;12.60;99.90
2565;DHT22;1292;48.020;7.822;2023-04-15T19:42:00;12.60;99.90
2565;DHT22;1292;48.020;7.822;2023-04-15T19:44:28;12.50;99.90
2565;DHT22;1292;48.020;7.822;2023-04-15T19:46:55;12.40;99.90
2565;DHT22;1292;48.020;7.822;2023-04-15T19:49:22;12.40;99.90
2565;DHT22;1292;48.020;7.822;2023-04-15T19:51:51;12.40;99.90
2565;DHT22;1292;48.020;7.822;2023-04-15T19:54:19;12.30;99.90
2565;DHT22;1292;48.020;7.822;2023-04-15T19:56:47;12.30;99.90
2565;DHT22;1292;48.020;7.822;2023-04-15T19:59:14;12.30;99.90
2565;DHT22;1292;48.020;7.822;2023-04-15T20:01:40;12.20;99.90
2565;DHT22;1292;48.020;7.822;2023-04-15T20:04:07;12.30;99.90
2565;DHT22;1292;48.020;7.822;2023-04-15T20:06:34;12.30;99.90
2565;DHT22;1292;48.020;7.822;2023-04-15T20:09:02;12.40;99.90
2565;DHT22;1292;48.020;7.822;2023-04-15T20:11:30;12.40;99.90
2565;DHT22;1292;48.020;7.822;2023-04-15T20:13:57;12.30;99.90
2565;DHT22;1292;48.020;7.822;2023-04-15T20:16:26;12.30;99.90
2565;DHT22;1292;48.020;7.822;2023-04-15T20:18:53;12.20;99.90
2565;DHT22;1292;48.020;7.822;2023-04-15T20:21:20;12.10;99.90
2565;DHT22;1292;48.020;7.822;2023-04-15T20:23:47;12.10;99.90
2565;DHT22;1292;48.020;7.822;2023-04-15T20:26:15;12.10;99.90
2565;DHT22;1292;48.020;7.822;2023-04-15T20:28:42;11.90;99.90
2565;DHT22;1292;48.020;7.822;2023-04-15T20:31:09;11.70;99.90
2565;DHT22;1292;48.020;7.822;2023-04-15T20:33:36;11.60;99.90
2565;DHT22;1292;48.020;7.822;2023-04-15T20:36:04;11.60;99.90
2565;DHT22;1292;48.020;7.822;2023-04-15T20:38:30;11.60;99.90
2565;DHT22;1292;48.020;7.822;2023-04-15T20:40:57;11.50;99.90
2565;DHT22;1292;48.020;7.822;2023-04-15T20:43:26;11.40;99.90
2565;DHT22;1292;48.020;7.822;2023-04-15T20:45:54;11.30;99.90
2565;DHT22;1292;48.020;7.822;2023-04-15T20:48:21;11.20;99.90
2565;DHT22;1292;48.020;7.822;2023-04-15T20:50:48;11.20;99.90
2565;DHT22;1292;48.020;7.822;2023-04-15T20:53:15;11.20;99.90
2565;DHT22;1292;48.020;7.822;2023-04-15T20:55:43;11.20;99.90
2565;DHT22;1292;48.020;7.822;2023-04-15T20:58:10;11.20;99.90
